Simi Valley, California
Current Conditions -  °F | °C
As of 3:51 AM on Thursday 27 Nov 2014 (Local Time) from KVNY Reporting Station
Clear Clear  
Wind Chill: 51°   Ceiling: Unl
Heat Index: 51°   Visibility: 10mi
Dew Point: 29°   Wind: 0mph
Humidity: 43%   Direction: NA
Pressure: 30.11"   Gusts: NA
Location:  34.29°N, 118.71°W
Report Text: KVNY 271151Z 00000KT 10SM CLR 11/M02 A3011 RMK AO2 SLP190 T01061017 10156 20106 58010
Loading
Personal Weather Stations






























Interactive Weather Map New forecast layout! Learn more

10-Day Weather Forecast

Advertisements
Track Severe Weather on mobile